HE28 weather

Gebel El Basur Air Base
Beheira Governorate, Egypt

Public forecast

Using degrees Celsius for public forecast. Weather courtesy of forecast.io.

METAR (pilot weather report)

Closest report is El Nouzha Airport, 49.8 nm (92.3 km) NW. Retrieved 2019/03/25 13:00 UTC (26 minutes ago):

HEAX 251300Z 29008KT 9999 SCT020 19/08 Q1008 NOSIG

TAF (pilot weather forecast)

Closest forecast is El Nouzha Airport, 49.8 nm (92.3 km) NW. Retrieved 2019/03/25 12:17 UTC (1 hour ago):

TAF HEAX 251100Z 2512/2618 31010G20KT 9999 SCT020